シンガポール/チャンギ の空港の天気 - METARとTAF

シンガポール・チャンギ国際空港 ( WSSS / SIN ) - シンガポール Changi
飛行場実況気象(Metar)
観測時間07/17 17:00 SGT (07/17 09:00 UTC)
風向・風速南南西 4m/s
視程9000m
天気現象
少しの雲 雲底高度 520m
全天の4割程度の雲 雲底高度 8230m
気温30℃
湿度70%
気圧1005hPa
METARWSSS 170900Z 20007KT 170V260 9000 FEW017 SCT270 30/24 Q1005 NOSIG
過去の天気等 Google飛行場航空写真 Wunderground天気予報

過去48時間のMETAR

飛行場予報(TAF)
発表時間: 7/17 16:00 SGT (7/17 08:00 UTC)
予報対象時間: 17日16時 SGT ~ 18日20時 SGT
風向・風速南 6m/s
視程10km以上
少しの積乱雲 雲底高度 550m
全天の4割程度の雲 雲底高度 610m
TAF AMD WSSS 170800Z 1708/1812 18012KT 9999 FEW018CB SCT020